Weather at Cataratas International Airport

Public forecast

Using degrees Celsius for public forecast. Weather courtesy of forecast.io.

Current aviation weather report (METAR) for Cataratas International Airport

2024/05/26 14:00 (retrieved 46 minutes ago)

SBFI 261400Z 14001KT 9999 SCT005 10/10 Q1023

Aviation forecast (TAF) for Cataratas International Airport

2024/05/26 12:00 (retrieved 3 hours ago)

TAF SBFI 260900Z 2612/2712 19005KT CAVOK TN10/2612Z TX17/2618Z BECMG 2614/2616 26005KT 9999 SCT025 TEMPO 2700/2704 7000 RA OVC035 BECMG 2704/2706 4000 RA BR FEW006 OVC030 RMK PFR